Time;durP1;ratioP1;P1;durP2;ratioP2;P2;SDS_P1;SDS_P2;PMS_P1;PMS_P2;Temp;Humidity;BMP_temperature;BMP_pressure;BME280_temperature;BME280_humidity;BME280_pressure;Samples;Min_cycle;Max_cycle;Signal;HPM_P1;HPM_P2
2023/06/23 00:01:00;;;;;;;9.40;6.93;;;22.70;68.00;;;;;;5034470;28;20469;-54
2023/06/23 00:03:26;;;;;;;7.75;6.32;;;22.70;68.00;;;;;;5034139;28;20108;-54
2023/06/23 00:05:52;;;;;;;7.80;6.95;;;22.70;67.90;;;;;;5034284;28;20033;-54
2023/06/23 00:08:18;;;;;;;7.80;6.57;;;22.70;67.90;;;;;;5034482;28;20099;-54
2023/06/23 00:10:43;;;;;;;9.23;7.25;;;22.70;68.00;;;;;;5033991;28;20025;-54
2023/06/23 00:13:10;;;;;;;9.55;7.15;;;22.70;68.00;;;;;;5034344;28;20087;-52
2023/06/23 00:15:36;;;;;;;8.95;7.00;;;22.70;68.10;;;;;;5034059;28;20384;-54
2023/06/23 00:18:02;;;;;;;8.07;7.03;;;22.70;68.20;;;;;;5034058;28;20087;-55
2023/06/23 00:20:28;;;;;;;7.15;6.40;;;22.60;68.90;;;;;;5034259;28;20021;-54
2023/06/23 00:22:53;;;;;;;8.82;6.80;;;22.60;68.20;;;;;;5033819;28;20030;-54
2023/06/23 00:25:19;;;;;;;7.95;7.07;;;22.60;68.30;;;;;;5034269;28;20404;-55
2023/06/23 00:27:45;;;;;;;7.30;6.50;;;22.60;68.40;;;;;;5033848;28;20560;-55
2023/06/23 00:30:11;;;;;;;7.63;6.43;;;22.60;68.40;;;;;;5034114;28;20501;-54
2023/06/23 00:32:38;;;;;;;8.57;6.68;;;22.60;68.50;;;;;;5034034;28;20108;-55
2023/06/23 00:35:05;;;;;;;9.25;7.22;;;22.60;68.60;;;;;;5033573;28;20060;-55
2023/06/23 00:37:31;;;;;;;7.30;6.60;;;22.60;68.60;;;;;;5033554;28;20022;-51
2023/06/23 00:39:56;;;;;;;8.38;6.35;;;22.50;68.60;;;;;;5033577;28;20033;-54
2023/06/23 00:42:23;;;;;;;7.97;6.53;;;22.50;68.80;;;;;;5033519;28;20021;-54
2023/06/23 00:44:49;;;;;;;6.97;6.25;;;22.50;68.90;;;;;;5033693;28;20033;-55
2023/06/23 00:47:16;;;;;;;9.73;6.43;;;22.50;69.20;;;;;;5033015;28;20044;-55
2023/06/23 00:49:42;;;;;;;8.45;6.90;;;22.50;69.20;;;;;;5033639;28;20028;-54
2023/06/23 00:52:09;;;;;;;8.77;6.85;;;22.50;69.30;;;;;;5033608;28;20030;-54
2023/06/23 00:54:35;;;;;;;7.68;6.28;;;22.40;69.40;;;;;;5033116;28;20404;-55
2023/06/23 00:57:05;;;;;;;9.60;6.80;;;22.50;69.50;;;;;;5033529;28;20556;-54
2023/06/23 00:59:31;;;;;;;9.55;7.05;;;22.40;69.50;;;;;;5033212;28;20025;-53
2023/06/23 01:02:01;;;;;;;8.63;7.30;;;22.40;69.60;;;;;;5033085;28;20033;-54
2023/06/23 01:04:31;;;;;;;10.27;6.55;;;22.40;69.60;;;;;;5033037;28;20050;-54
2023/06/23 01:07:22;;;;;;;8.10;7.13;;;22.40;69.70;;;;;;5031365;28;20030;-54
2023/06/23 01:10:00;;;;;;;;;;;22.40;69.70;;;;;;5032852;28;20500;-55
2023/06/23 01:12:56;;;;;;;7.53;6.55;;;22.30;69.60;;;;;;5033151;28;19905;-54
2023/06/23 01:15:34;;;;;;;7.50;6.50;;;22.30;69.80;;;;;;5032739;28;20057;-51
2023/06/23 01:18:04;;;;;;;8.90;6.60;;;22.30;70.60;;;;;;5032918;28;20104;-52
2023/06/23 01:20:33;;;;;;;12.00;7.22;;;22.20;70.00;;;;;;5033075;28;20029;-54
2023/06/23 01:23:26;;;;;;;7.80;6.78;;;22.20;70.30;;;;;;5033222;28;20022;-55
2023/06/23 01:26:02;;;;;;;7.90;7.10;;;22.20;70.20;;;;;;5032802;28;20025;-53
2023/06/23 01:28:47;;;;;;;7.72;6.80;;;22.30;70.40;;;;;;5032687;28;20148;-52
2023/06/23 01:31:17;;;;;;;7.75;6.95;;;22.20;70.30;;;;;;5032626;28;20041;-51
2023/06/23 01:33:48;;;;;;;8.73;6.60;;;22.20;70.50;;;;;;5032806;28;20388;-54
2023/06/23 01:36:29;;;;;;;;;;;22.10;70.50;;;;;;5033207;28;20488;-53
2023/06/23 01:39:00;;;;;;;8.80;7.00;;;22.10;70.30;;;;;;5032466;28;19978;-54
2023/06/23 01:41:32;;;;;;;8.85;6.85;;;22.10;70.80;;;;;;5032424;28;20596;-54
2023/06/23 01:44:03;;;;;;;8.35;7.43;;;22.10;70.70;;;;;;5032658;28;20496;-55
2023/06/23 01:46:34;;;;;;;8.90;7.70;;;22.10;70.90;;;;;;5032407;28;20057;-55
2023/06/23 01:49:10;;;;;;;8.40;7.47;;;22.10;71.00;;;;;;5032596;28;20079;-54
2023/06/23 01:51:39;;;;;;;8.35;7.15;;;22.10;71.00;;;;;;5032498;28;20036;-55
2023/06/23 01:54:06;;;;;;;11.35;8.20;;;22.10;71.00;;;;;;5032358;28;20022;-54
2023/06/23 01:56:33;;;;;;;8.93;7.32;;;22.10;71.10;;;;;;5032133;28;20405;-54
2023/06/23 01:59:02;;;;;;;8.80;7.43;;;22.10;71.30;;;;;;5031503;28;20022;-55
2023/06/23 02:01:30;;;;;;;9.27;7.30;;;22.10;71.30;;;;;;5032257;28;20026;-55
2023/06/23 02:03:57;;;;;;;10.57;7.40;;;22.00;71.30;;;;;;5031793;28;20045;-54
2023/06/23 02:06:24;;;;;;;8.85;7.32;;;22.00;71.40;;;;;;5031956;28;20096;-54
2023/06/23 02:08:51;;;;;;;10.63;7.70;;;22.00;71.40;;;;;;5031716;28;20037;-54
2023/06/23 02:11:18;;;;;;;9.07;7.45;;;22.00;71.50;;;;;;5031827;28;20362;-55
2023/06/23 02:13:45;;;;;;;8.93;7.55;;;22.00;71.50;;;;;;5031650;28;20021;-54
2023/06/23 02:16:13;;;;;;;7.80;7.00;;;22.00;71.50;;;;;;5031834;28;20535;-54
2023/06/23 02:18:40;;;;;;;9.48;7.38;;;22.00;71.60;;;;;;5031770;28;20523;-54
2023/06/23 02:21:07;;;;;;;9.40;7.82;;;22.00;71.70;;;;;;5031920;28;20033;-54
2023/06/23 02:23:34;;;;;;;10.77;7.63;;;22.00;71.60;;;;;;5031859;28;20166;-54
2023/06/23 02:26:00;;;;;;;8.20;7.30;;;22.00;71.80;;;;;;5031948;28;20051;-53
2023/06/23 02:28:26;;;;;;;8.45;7.30;;;22.00;71.80;;;;;;5031603;28;20037;-52
2023/06/23 02:30:55;;;;;;;11.38;7.30;;;22.00;71.80;;;;;;5031566;28;20029;-52
2023/06/23 02:33:21;;;;;;;9.63;7.25;;;22.10;71.80;;;;;;5031199;28;20420;-54
2023/06/23 02:35:48;;;;;;;9.13;7.68;;;22.10;71.70;;;;;;5030038;28;20075;-55
2023/06/23 02:38:21;;;;;;;8.18;7.38;;;22.10;71.60;;;;;;5031378;28;20095;-55
2023/06/23 02:40:47;;;;;;;8.95;7.45;;;22.10;71.60;;;;;;5031170;28;20030;-51
2023/06/23 02:43:29;;;;;;;8.70;7.70;;;22.10;71.70;;;;;;5031015;28;20385;-51
2023/06/23 02:46:00;;;;;;;8.57;7.35;;;22.10;71.70;;;;;;5029293;28;20499;-53
2023/06/23 02:48:32;;;;;;;8.35;7.28;;;22.20;71.60;;;;;;5029336;28;20022;-54
2023/06/23 02:50:59;;;;;;;8.18;7.25;;;22.20;71.70;;;;;;5029281;28;20525;-54
2023/06/23 02:53:34;;;;;;;8.50;6.90;;;22.20;71.60;;;;;;5029819;28;20033;-54
2023/06/23 02:56:05;;;;;;;9.35;7.72;;;22.20;71.50;;;;;;5029537;28;20026;-53
2023/06/23 02:58:31;;;;;;;;;;;22.20;71.50;;;;;;5030541;28;20025;-55
2023/06/23 03:01:01;;;;;;;8.80;6.95;;;22.20;71.30;;;;;;5031239;28;20368;-54
2023/06/23 03:03:28;;;;;;;8.07;7.28;;;22.20;71.40;;;;;;5031236;28;20036;-55
2023/06/23 03:05:56;;;;;;;10.45;7.68;;;22.20;71.50;;;;;;5031535;28;20436;-55
2023/06/23 03:08:25;;;;;;;9.68;8.43;;;22.20;71.50;;;;;;5028467;28;20037;-55
2023/06/23 03:10:52;;;;;;;16.27;8.32;;;22.30;71.50;;;;;;5033411;28;20108;-55
2023/06/23 03:13:18;;;;;;;10.05;7.80;;;22.30;71.60;;;;;;5035257;28;20144;-55
2023/06/23 03:15:47;;;;;;;9.63;8.50;;;22.30;71.50;;;;;;5035097;28;20029;-55
2023/06/23 03:18:20;;;;;;;11.73;8.90;;;22.40;71.50;;;;;;5035136;28;20021;-55
2023/06/23 03:20:50;;;;;;;10.50;8.75;;;22.40;71.40;;;;;;5035135;28;20474;-55
2023/06/23 03:23:18;;;;;;;10.05;8.95;;;22.40;71.30;;;;;;5035058;28;20031;-52
2023/06/23 03:25:47;;;;;;;10.73;9.45;;;22.40;71.30;;;;;;5035031;28;20035;-55
2023/06/23 03:28:26;;;;;;;10.57;8.88;;;22.50;71.30;;;;;;5035083;28;20435;-55
2023/06/23 03:31:07;;;;;;;9.60;8.45;;;22.60;71.10;;;;;;5035189;28;20488;-54
2023/06/23 03:33:44;;;;;;;10.10;9.10;;;22.70;71.10;;;;;;5035134;28;20029;-55
2023/06/23 03:36:18;;;;;;;10.45;8.55;;;22.80;71.20;;;;;;5034966;28;20396;-55
2023/06/23 03:39:06;;;;;;;9.18;8.23;;;23.00;71.30;;;;;;5034701;28;20021;-55
2023/06/23 03:41:33;;;;;;;9.63;8.10;;;23.20;71.00;;;;;;5030633;28;20064;-54
2023/06/23 03:44:06;;;;;;;9.63;7.70;;;23.70;70.70;;;;;;5033836;28;20029;-55
2023/06/23 03:46:43;;;;;;;9.35;8.05;;;24.10;69.60;;;;;;5033310;28;20033;-52
2023/06/23 03:49:10;;;;;;;11.15;8.35;;;24.70;68.70;;;;;;5033475;28;20034;-55
2023/06/23 03:51:39;;;;;;;8.73;7.38;;;25.30;67.60;;;;;;5033343;28;20112;-55
2023/06/23 03:54:06;;;;;;;10.02;7.35;;;25.90;66.20;;;;;;5032377;28;20026;-53
2023/06/23 03:56:34;;;;;;;10.68;6.80;;;26.50;65.10;;;;;;5032488;28;20444;-55
2023/06/23 03:59:02;;;;;;;8.02;6.72;;;27.10;63.80;;;;;;5032785;28;20014;-56
2023/06/23 04:01:30;;;;;;;9.48;7.72;;;27.70;62.50;;;;;;5032898;28;20087;-56
2023/06/23 04:03:57;;;;;;;10.52;7.28;;;28.40;61.60;;;;;;5032474;28;20093;-55
2023/06/23 04:06:25;;;;;;;9.52;7.60;;;28.90;60.00;;;;;;5033452;28;20026;-56
2023/06/23 04:08:54;;;;;;;9.35;7.60;;;29.50;59.20;;;;;;5033880;28;20027;-55
2023/06/23 04:11:21;;;;;;;8.00;6.85;;;30.10;58.20;;;;;;5034088;28;20017;-56
2023/06/23 04:13:49;;;;;;;8.85;7.85;;;30.70;57.50;;;;;;5034019;28;20022;-57
2023/06/23 04:16:17;;;;;;;8.98;7.05;;;31.30;56.40;;;;;;5034040;28;20063;-56
2023/06/23 04:18:45;;;;;;;8.63;6.53;;;31.90;55.30;;;;;;5034110;28;20056;-56
2023/06/23 04:21:12;;;;;;;7.68;6.60;;;32.60;54.50;;;;;;5034068;28;20021;-54
2023/06/23 04:23:40;;;;;;;8.18;6.57;;;33.10;53.30;;;;;;5033130;28;20032;-55
2023/06/23 04:26:08;;;;;;;9.32;6.85;;;33.70;52.50;;;;;;5034035;28;20354;-56
2023/06/23 04:28:35;;;;;;;7.13;6.43;;;34.10;51.50;;;;;;5033857;28;20118;-56
2023/06/23 04:31:06;;;;;;;8.20;7.03;;;34.60;50.90;;;;;;5033971;28;20029;-53
2023/06/23 04:33:31;;;;;;;9.57;6.90;;;34.90;50.20;;;;;;5033693;28;20482;-56
2023/06/23 04:36:08;;;;;;;8.65;7.18;;;35.30;49.70;;;;;;5033720;28;20025;-57
2023/06/23 04:38:37;;;;;;;7.70;6.55;;;35.70;49.50;;;;;;5033814;28;20076;-56
2023/06/23 04:41:07;;;;;;;8.50;6.25;;;36.00;48.80;;;;;;5033494;28;20064;-55
2023/06/23 04:43:37;;;;;;;7.85;6.10;;;36.30;48.20;;;;;;5033683;28;20041;-56
2023/06/23 04:46:13;;;;;;;9.27;6.32;;;36.70;47.80;;;;;;5033600;28;20497;-56
2023/06/23 04:48:55;;;;;;;12.40;6.65;;;36.90;47.50;;;;;;5033823;28;20037;-57
2023/06/23 04:51:31;;;;;;;8.48;6.35;;;37.10;47.10;;;;;;5033426;28;20025;-56
2023/06/23 04:54:06;;;;;;;8.38;6.20;;;37.30;46.70;;;;;;5033591;28;20026;-58
2023/06/23 04:56:34;;;;;;;8.45;5.95;;;37.30;46.70;;;;;;5033436;28;20464;-58
2023/06/23 04:59:04;;;;;;;7.97;6.20;;;37.20;46.40;;;;;;5033496;28;20367;-58
2023/06/23 05:01:31;;;;;;;8.23;6.18;;;37.20;46.40;;;;;;5033173;28;20032;-57
2023/06/23 05:04:00;;;;;;;7.18;5.90;;;37.20;46.30;;;;;;5032994;28;20041;-58
2023/06/23 05:06:27;;;;;;;7.05;6.15;;;37.30;46.20;;;;;;5033367;28;20366;-57
2023/06/23 05:08:54;;;;;;;6.85;6.15;;;37.50;46.20;;;;;;5030977;28;20026;-57
2023/06/23 05:11:21;;;;;;;7.43;6.50;;;37.60;45.80;;;;;;5031952;28;20026;-57
2023/06/23 05:13:48;;;;;;;7.90;6.47;;;37.80;45.70;;;;;;5032809;28;20021;-58
2023/06/23 05:16:16;;;;;;;8.70;6.60;;;37.90;45.50;;;;;;5033126;28;20044;-57
2023/06/23 05:18:45;;;;;;;6.68;5.93;;;38.10;45.10;;;;;;5032911;28;20029;-57
2023/06/23 05:21:13;;;;;;;7.32;6.18;;;38.20;44.70;;;;;;5033059;28;20496;-58
2023/06/23 05:23:40;;;;;;;7.80;5.68;;;38.20;44.30;;;;;;5032728;28;20132;-58
2023/06/23 05:26:08;;;;;;;8.32;6.47;;;38.20;44.30;;;;;;5032882;28;20060;-56
2023/06/23 05:28:36;;;;;;;8.93;6.55;;;37.80;44.50;;;;;;5032661;28;20034;-57
2023/06/23 05:31:04;;;;;;;8.43;7.45;;;37.30;44.80;;;;;;5032896;28;20025;-57
2023/06/23 05:33:33;;;;;;;9.48;7.05;;;36.70;45.40;;;;;;5031738;28;20029;-54
2023/06/23 05:35:59;;;;;;;8.90;7.37;;;36.10;46.20;;;;;;5032550;28;20021;-57
2023/06/23 05:38:28;;;;;;;10.55;6.72;;;35.40;46.80;;;;;;5032576;28;20026;-56
2023/06/23 05:40:54;;;;;;;7.22;6.35;;;34.80;47.60;;;;;;5032830;28;20481;-55
2023/06/23 05:43:19;;;;;;;7.85;7.03;;;34.10;48.50;;;;;;5031654;28;20033;-57
2023/06/23 05:45:45;;;;;;;10.00;6.90;;;33.60;49.30;;;;;;5030227;28;20033;-54
2023/06/23 05:48:28;;;;;;;9.90;7.40;;;33.10;50.20;;;;;;5030852;28;20041;-57
2023/06/23 05:50:56;;;;;;;9.02;7.72;;;32.70;50.70;;;;;;5029975;28;20381;-57
2023/06/23 05:53:26;;;;;;;9.63;7.88;;;32.40;51.40;;;;;;5029711;28;20029;-55
2023/06/23 05:56:27;;;;;;;9.43;7.57;;;32.00;51.80;;;;;;5029918;28;20381;-57
2023/06/23 05:58:59;;;;;;;11.73;7.78;;;31.80;52.30;;;;;;5009100;28;20397;-55
2023/06/23 06:01:27;;;;;;;9.52;7.95;;;31.60;52.90;;;;;;5028226;28;20164;-57
2023/06/23 06:04:13;;;;;;;9.18;7.30;;;31.40;53.10;;;;;;5031507;28;20049;-57
2023/06/23 06:06:40;;;;;;;9.00;8.10;;;31.20;53.10;;;;;;5028839;28;20021;-57
2023/06/23 06:09:09;;;;;;;9.15;7.32;;;31.10;53.30;;;;;;5031179;28;20030;-57
2023/06/23 06:11:36;;;;;;;9.20;7.73;;;31.00;53.60;;;;;;5030521;28;20477;-57
2023/06/23 06:14:03;;;;;;;8.52;7.72;;;30.90;53.70;;;;;;5031021;28;20132;-56
2023/06/23 06:16:30;;;;;;;9.43;7.40;;;30.80;54.00;;;;;;5032878;28;20028;-57
2023/06/23 06:18:59;;;;;;;9.70;7.63;;;30.70;54.40;;;;;;5037184;28;20017;-57
2023/06/23 06:21:28;;;;;;;8.70;7.43;;;30.60;54.60;;;;;;5042153;28;20392;-56
2023/06/23 06:23:56;;;;;;;15.00;8.32;;;30.60;54.80;;;;;;5038281;28;20151;-57
2023/06/23 06:26:22;;;;;;;8.52;7.40;;;30.50;55.10;;;;;;5039992;28;20071;-55
2023/06/23 06:28:53;;;;;;;9.48;7.97;;;30.40;55.20;;;;;;5039898;28;20064;-57
2023/06/23 06:31:21;;;;;;;13.80;7.38;;;30.40;55.30;;;;;;5029584;28;20040;-50
2023/06/23 06:33:50;;;;;;;9.48;7.47;;;30.30;55.40;;;;;;5033797;28;20016;-57
2023/06/23 06:36:19;;;;;;;10.55;7.00;;;30.20;55.40;;;;;;5045054;28;20065;-56
2023/06/23 06:38:45;;;;;;;8.85;7.65;;;30.20;55.40;;;;;;5038063;28;20021;-57
2023/06/23 06:41:13;;;;;;;9.52;7.25;;;30.20;55.70;;;;;;5031574;28;20108;-57
2023/06/23 06:43:39;;;;;;;10.25;7.20;;;30.20;56.00;;;;;;5026849;28;20128;-57
2023/06/23 06:46:06;;;;;;;7.57;6.80;;;30.10;56.00;;;;;;5033314;28;20124;-57
2023/06/23 06:48:33;;;;;;;8.68;7.55;;;30.10;55.70;;;;;;5032236;28;20478;-56
2023/06/23 06:51:00;;;;;;;9.15;7.38;;;30.10;55.60;;;;;;5042766;28;20146;-54
2023/06/23 06:53:27;;;;;;;9.52;7.40;;;30.10;55.70;;;;;;5041856;28;20037;-56
2023/06/23 06:55:53;;;;;;;10.10;7.40;;;30.00;55.60;;;;;;5038074;28;20028;-57
2023/06/23 06:58:19;;;;;;;7.80;6.93;;;29.90;55.80;;;;;;5037183;28;20025;-56
2023/06/23 07:00:45;;;;;;;8.18;7.32;;;29.90;56.30;;;;;;5031190;28;20028;-57
2023/06/23 07:03:15;;;;;;;8.45;7.13;;;29.90;56.40;;;;;;5032773;28;20075;-57
2023/06/23 07:05:41;;;;;;;9.18;7.47;;;29.90;56.50;;;;;;5035528;28;20440;-54
2023/06/23 07:08:08;;;;;;;7.85;6.90;;;29.90;56.90;;;;;;5031674;28;20053;-57
2023/06/23 07:10:35;;;;;;;8.10;7.30;;;29.90;56.50;;;;;;5030078;28;20025;-57
2023/06/23 07:13:01;;;;;;;9.55;7.88;;;29.90;56.30;;;;;;5030455;28;20771;-55
2023/06/23 07:15:27;;;;;;;9.75;7.82;;;29.90;56.40;;;;;;5031876;28;20118;-56
2023/06/23 07:17:53;;;;;;;7.85;7.05;;;29.90;56.60;;;;;;5039925;28;20037;-56
2023/06/23 07:20:19;;;;;;;9.00;7.38;;;29.90;56.90;;;;;;5028274;28;20068;-57
2023/06/23 07:22:45;;;;;;;9.68;7.38;;;29.90;56.90;;;;;;5029617;28;20458;-56
2023/06/23 07:25:11;;;;;;;7.65;6.85;;;29.90;56.80;;;;;;5023452;28;20025;-56
2023/06/23 07:27:37;;;;;;;7.95;7.15;;;29.90;56.60;;;;;;5029615;28;20034;-55
2023/06/23 07:30:04;;;;;;;7.65;6.95;;;29.90;56.60;;;;;;5029702;28;20037;-54
2023/06/23 07:32:29;;;;;;;8.73;6.90;;;29.90;56.50;;;;;;5024155;28;20123;-56
2023/06/23 07:34:55;;;;;;;9.05;7.30;;;29.90;56.30;;;;;;5027909;28;20029;-56
2023/06/23 07:37:21;;;;;;;8.07;7.28;;;29.90;56.70;;;;;;5035289;28;20504;-57
2023/06/23 07:39:46;;;;;;;9.32;7.93;;;29.90;56.50;;;;;;5029852;28;20064;-56
2023/06/23 07:42:12;;;;;;;8.48;6.55;;;29.90;56.50;;;;;;5026195;28;20128;-57
2023/06/23 07:44:38;;;;;;;8.13;7.03;;;29.90;56.70;;;;;;5028736;28;20111;-57
2023/06/23 07:47:04;;;;;;;7.97;6.60;;;30.00;56.70;;;;;;5033042;28;20025;-54
2023/06/23 07:49:30;;;;;;;8.63;7.72;;;30.00;56.30;;;;;;5026797;28;20041;-52
2023/06/23 07:52:00;;;;;;;7.63;6.82;;;30.00;56.80;;;;;;5027556;28;20485;-57
2023/06/23 07:54:27;;;;;;;9.90;7.32;;;30.00;56.10;;;;;;5029124;28;20087;-57
2023/06/23 07:56:52;;;;;;;8.00;6.78;;;30.00;55.90;;;;;;5040644;28;20037;-55
2023/06/23 07:59:18;;;;;;;8.45;6.95;;;30.00;56.10;;;;;;5031002;28;20074;-56
2023/06/23 08:01:44;;;;;;;7.63;6.82;;;30.00;55.90;;;;;;5036481;28;20033;-55
2023/06/23 08:04:10;;;;;;;8.05;6.43;;;30.10;55.60;;;;;;5024291;28;20072;-57
2023/06/23 08:06:36;;;;;;;10.40;6.90;;;30.10;55.80;;;;;;5034222;28;20025;-57
2023/06/23 08:09:02;;;;;;;8.60;7.18;;;30.10;55.80;;;;;;5032832;28;20752;-56
2023/06/23 08:11:27;;;;;;;8.35;6.65;;;30.10;55.80;;;;;;5030009;28;20662;-57
2023/06/23 08:13:54;;;;;;;8.57;6.85;;;30.10;55.90;;;;;;5023805;28;20036;-57
2023/06/23 08:16:20;;;;;;;8.75;7.05;;;30.10;56.00;;;;;;5022540;28;20037;-54
2023/06/23 08:18:46;;;;;;;7.75;6.95;;;30.10;56.00;;;;;;5029259;28;20026;-56
2023/06/23 08:21:11;;;;;;;9.65;7.25;;;30.10;56.20;;;;;;5021583;28;20043;-56
2023/06/23 08:23:38;;;;;;;11.57;6.93;;;30.10;56.00;;;;;;5029468;28;20025;-54
2023/06/23 08:26:04;;;;;;;8.77;7.43;;;30.10;56.00;;;;;;5031272;28;20127;-55
2023/06/23 08:28:30;;;;;;;11.65;7.40;;;30.10;56.20;;;;;;5025731;28;20447;-57
2023/06/23 08:30:57;;;;;;;8.23;6.78;;;30.10;56.10;;;;;;5030864;28;20060;-56
2023/06/23 08:33:23;;;;;;;8.25;7.45;;;30.10;55.90;;;;;;5036472;28;20034;-57
2023/06/23 08:35:49;;;;;;;8.57;7.70;;;30.10;55.80;;;;;;5030718;28;21560;-54
2023/06/23 08:38:16;;;;;;;10.63;7.38;;;30.10;55.90;;;;;;5031805;28;20060;-55
2023/06/23 08:40:41;;;;;;;8.10;6.75;;;30.10;55.90;;;;;;5021541;28;20033;-54
2023/06/23 08:43:11;;;;;;;8.05;7.25;;;30.20;56.30;;;;;;5017656;28;20547;-57
2023/06/23 08:45:44;;;;;;;7.10;6.47;;;30.30;56.20;;;;;;5022871;28;20030;-57
2023/06/23 08:48:10;;;;;;;8.95;7.18;;;30.30;56.00;;;;;;5026672;28;20017;-56
2023/06/23 08:50:37;;;;;;;8.13;7.22;;;30.30;55.80;;;;;;5026222;28;20061;-57
2023/06/23 08:53:06;;;;;;;8.65;7.60;;;30.30;55.70;;;;;;5026527;28;20029;-53
2023/06/23 08:55:32;;;;;;;7.97;7.18;;;30.40;55.70;;;;;;5026839;28;21011;-56
2023/06/23 08:58:02;;;;;;;8.25;7.43;;;30.40;55.50;;;;;;5026677;28;20164;-56
2023/06/23 09:00:28;;;;;;;8.35;7.32;;;30.30;56.00;;;;;;5019761;28;20097;-56
2023/06/23 09:02:55;;;;;;;8.32;7.25;;;30.30;55.50;;;;;;5026787;28;20075;-55
2023/06/23 09:05:21;;;;;;;8.10;7.03;;;30.30;55.50;;;;;;5014790;28;20041;-52
2023/06/23 09:07:47;;;;;;;8.57;7.13;;;30.30;55.30;;;;;;5015778;28;20029;-50
2023/06/23 09:10:13;;;;;;;10.07;7.65;;;30.30;55.30;;;;;;5025009;28;20021;-55
2023/06/23 09:12:50;;;;;;;9.95;7.45;;;30.20;55.40;;;;;;5022891;28;20439;-55
2023/06/23 09:15:17;;;;;;;8.27;7.38;;;30.20;55.50;;;;;;5025457;28;20640;-53
2023/06/23 09:17:45;;;;;;;8.07;7.28;;;30.10;55.60;;;;;;5019124;28;20018;-54
2023/06/23 09:20:12;;;;;;;9.95;7.07;;;30.10;55.60;;;;;;5025367;28;20025;-52
2023/06/23 09:22:39;;;;;;;10.82;7.88;;;30.10;55.70;;;;;;5022235;28;20040;-55
2023/06/23 09:25:05;;;;;;;10.85;7.30;;;30.10;55.50;;;;;;5032932;28;20032;-56
2023/06/23 09:27:41;;;;;;;9.05;7.72;;;30.10;55.20;;;;;;5015608;28;20087;-57
2023/06/23 09:30:07;;;;;;;7.95;7.05;;;30.10;54.70;;;;;;5025254;28;20080;-57
2023/06/23 09:32:33;;;;;;;8.52;7.65;;;30.10;54.50;;;;;;5021169;28;20061;-57
2023/06/23 09:34:59;;;;;;;9.02;7.35;;;30.10;54.40;;;;;;5020445;28;20509;-53
2023/06/23 09:37:33;;;;;;;8.13;7.15;;;30.00;54.30;;;;;;5021085;28;20053;-54
2023/06/23 09:39:59;;;;;;;8.60;7.80;;;30.10;54.70;;;;;;5015293;28;21438;-56
2023/06/23 09:42:24;;;;;;;9.88;8.07;;;30.00;54.70;;;;;;5016666;28;20038;-56
2023/06/23 09:44:50;;;;;;;8.30;7.38;;;30.00;54.60;;;;;;5021396;28;20037;-56
2023/06/23 09:47:18;;;;;;;8.13;7.32;;;30.00;54.60;;;;;;5020441;28;20041;-55
2023/06/23 09:49:47;;;;;;;10.23;7.53;;;30.00;54.70;;;;;;5022817;28;20037;-56
2023/06/23 09:52:22;;;;;;;9.13;6.93;;;30.00;54.50;;;;;;5017780;28;20029;-54
2023/06/23 09:54:48;;;;;;;7.85;6.97;;;30.10;54.20;;;;;;5018127;28;20044;-53
2023/06/23 09:57:15;;;;;;;9.52;7.53;;;30.10;54.10;;;;;;5020863;28;20029;-53
2023/06/23 09:59:42;;;;;;;7.68;6.90;;;30.10;54.10;;;;;;5014505;28;20124;-50
2023/06/23 10:02:18;;;;;;;8.20;7.43;;;30.10;54.00;;;;;;5012131;28;20033;-54
2023/06/23 10:04:45;;;;;;;8.55;6.93;;;30.10;53.80;;;;;;5006761;28;20152;-51
2023/06/23 10:07:23;;;;;;;7.95;7.15;;;30.20;53.60;;;;;;5002149;28;20037;-52
2023/06/23 10:09:53;;;;;;;8.73;7.38;;;30.20;53.40;;;;;;5015327;28;20537;-53
2023/06/23 10:12:28;;;;;;;7.95;7.15;;;30.20;52.90;;;;;;5011935;28;20393;-56
2023/06/23 10:14:55;;;;;;;8.82;8.02;;;30.30;53.10;;;;;;5013179;28;20034;-57
2023/06/23 10:17:22;;;;;;;8.13;6.88;;;30.30;53.00;;;;;;5018215;28;20488;-56
2023/06/23 10:19:48;;;;;;;8.15;7.35;;;30.30;53.10;;;;;;5020657;28;20030;-55
2023/06/23 10:22:18;;;;;;;10.30;7.40;;;30.40;52.90;;;;;;5017451;28;20449;-56
2023/06/23 10:24:52;;;;;;;9.83;7.63;;;30.40;52.70;;;;;;5017072;28;20369;-55
2023/06/23 10:27:29;;;;;;;8.07;7.28;;;30.50;52.80;;;;;;5014160;28;20704;-57
2023/06/23 10:29:58;;;;;;;7.53;6.82;;;30.60;52.90;;;;;;5015248;28;20029;-58
2023/06/23 10:32:28;;;;;;;8.15;6.88;;;30.60;52.50;;;;;;5017485;28;20033;-54
2023/06/23 10:34:59;;;;;;;8.95;6.90;;;30.60;52.10;;;;;;5013915;28;20025;-56
2023/06/23 10:37:26;;;;;;;10.02;6.80;;;30.60;52.10;;;;;;5021123;28;20152;-60
2023/06/23 10:39:57;;;;;;;7.28;6.53;;;30.50;51.80;;;;;;5016712;28;20033;-55
2023/06/23 10:42:24;;;;;;;8.93;7.22;;;30.50;51.40;;;;;;5014918;28;20029;-56
2023/06/23 10:44:50;;;;;;;6.80;6.10;;;30.40;51.50;;;;;;5017831;28;20060;-55
2023/06/23 10:47:17;;;;;;;6.70;6.10;;;30.40;51.40;;;;;;5015839;28;20125;-55
2023/06/23 10:49:44;;;;;;;6.65;5.97;;;30.30;50.70;;;;;;5019867;28;20033;-55
2023/06/23 10:52:11;;;;;;;6.72;5.50;;;30.30;50.30;;;;;;5016326;28;20103;-56
2023/06/23 10:54:36;;;;;;;7.70;6.03;;;30.30;50.30;;;;;;5027845;28;20449;-56
2023/06/23 10:57:10;;;;;;;7.38;6.68;;;30.30;50.30;;;;;;5026360;28;20028;-55
2023/06/23 10:59:40;;;;;;;7.00;6.30;;;30.30;50.30;;;;;;5026359;28;20532;-52
2023/06/23 11:02:09;;;;;;;6.18;5.47;;;30.20;50.30;;;;;;5027070;28;20025;-55
2023/06/23 11:04:38;;;;;;;6.30;5.70;;;30.20;50.30;;;;;;5023713;28;20041;-55
2023/06/23 11:07:07;;;;;;;7.63;6.25;;;30.20;50.30;;;;;;5024339;28;20532;-49
2023/06/23 11:09:47;;;;;;;8.93;7.47;;;30.20;50.50;;;;;;5027092;28;20103;-51
2023/06/23 11:12:33;;;;;;;7.00;5.97;;;30.20;50.90;;;;;;5029621;28;20044;-53
2023/06/23 11:15:20;;;;;;;8.48;7.15;;;30.20;50.50;;;;;;5027118;28;20037;-54
2023/06/23 11:17:50;;;;;;;7.10;6.40;;;30.20;50.60;;;;;;5026186;28;20094;-54
2023/06/23 11:20:24;;;;;;;9.18;6.70;;;30.20;51.10;;;;;;5035854;28;20531;-51
2023/06/23 11:23:06;;;;;;;7.40;6.63;;;30.20;51.20;;;;;;5013287;28;20037;-53
2023/06/23 11:25:53;;;;;;;7.93;7.10;;;30.20;51.30;;;;;;5016823;28;20068;-55
2023/06/23 11:28:35;;;;;;;9.13;6.32;;;30.20;51.30;;;;;;5053693;28;20107;-55
2023/06/23 11:31:06;;;;;;;7.82;6.97;;;30.30;51.50;;;;;;5020187;28;20045;-52
2023/06/23 11:33:39;;;;;;;7.63;6.72;;;30.30;51.40;;;;;;5020269;28;20123;-49
2023/06/23 11:36:13;;;;;;;6.88;6.28;;;30.30;51.50;;;;;;5024232;28;20052;-55
2023/06/23 11:38:41;;;;;;;7.95;6.28;;;30.40;51.70;;;;;;5032079;28;20548;-55
2023/06/23 11:41:07;;;;;;;6.93;6.22;;;30.40;52.30;;;;;;5059004;28;20159;-51
2023/06/23 11:43:34;;;;;;;7.07;6.38;;;30.40;52.30;;;;;;5019983;28;20033;-55
2023/06/23 11:46:09;;;;;;;8.23;6.88;;;30.50;51.50;;;;;;5026008;28;20013;-52
2023/06/23 11:48:39;;;;;;;7.97;7.10;;;30.50;51.50;;;;;;5027534;28;20056;-51
2023/06/23 11:51:06;;;;;;;8.18;6.90;;;30.50;51.30;;;;;;5023812;28;20440;-51
2023/06/23 11:53:33;;;;;;;7.88;7.07;;;30.50;51.30;;;;;;5021408;28;21473;-53
2023/06/23 11:55:59;;;;;;;7.10;6.22;;;30.50;51.40;;;;;;5033887;28;20026;-54
2023/06/23 11:58:29;;;;;;;6.70;5.88;;;30.60;51.30;;;;;;5032403;28;20029;-54
2023/06/23 12:00:55;;;;;;;6.03;5.43;;;30.60;51.30;;;;;;5030944;28;20060;-52
2023/06/23 12:03:21;;;;;;;6.68;5.78;;;30.60;51.20;;;;;;5026196;28;20068;-50
2023/06/23 12:05:46;;;;;;;6.82;6.13;;;30.60;51.20;;;;;;5023846;28;20506;-55
2023/06/23 12:08:13;;;;;;;6.75;5.88;;;30.60;51.30;;;;;;5027181;28;20084;-56
2023/06/23 12:10:40;;;;;;;6.82;6.13;;;30.60;51.50;;;;;;5018251;28;20037;-53
2023/06/23 12:13:10;;;;;;;6.22;5.47;;;30.60;51.60;;;;;;5026938;28;20095;-53
2023/06/23 12:15:40;;;;;;;7.07;6.35;;;30.60;51.80;;;;;;5032869;28;20705;-54
2023/06/23 12:18:06;;;;;;;6.00;5.40;;;30.60;51.90;;;;;;5018727;28;20029;-56
2023/06/23 12:20:44;;;;;;;6.50;5.80;;;30.60;52.60;;;;;;5024896;28;20032;-57
2023/06/23 12:23:10;;;;;;;6.00;5.40;;;30.70;52.00;;;;;;5024069;28;20036;-51
2023/06/23 12:25:42;;;;;;;7.07;6.38;;;30.60;52.00;;;;;;5028038;28;20037;-56
2023/06/23 12:28:15;;;;;;;7.03;6.18;;;30.70;52.00;;;;;;5028037;28;20034;-57
2023/06/23 12:30:43;;;;;;;7.50;6.25;;;30.70;52.10;;;;;;5023447;28;20052;-51
2023/06/23 12:33:13;;;;;;;6.75;6.07;;;30.70;52.10;;;;;;5028945;28;20173;-57
2023/06/23 12:35:39;;;;;;;8.73;6.57;;;30.70;52.10;;;;;;5025399;28;20033;-56
2023/06/23 12:38:08;;;;;;;7.07;6.38;;;30.70;52.00;;;;;;5029384;28;20037;-57
2023/06/23 12:40:35;;;;;;;6.60;5.90;;;30.70;52.00;;;;;;5022238;28;20736;-52
2023/06/23 12:43:03;;;;;;;6.88;6.28;;;30.60;51.90;;;;;;5025297;28;20100;-54
2023/06/23 12:45:28;;;;;;;7.32;6.10;;;30.70;51.90;;;;;;5023487;28;20198;-58
2023/06/23 12:47:57;;;;;;;7.20;6.50;;;30.60;52.00;;;;;;5026708;28;20037;-55
2023/06/23 12:50:31;;;;;;;7.05;6.35;;;30.60;51.90;;;;;;5027689;28;20028;-55
2023/06/23 12:52:58;;;;;;;6.72;6.03;;;30.60;52.00;;;;;;5057768;28;20108;-55
2023/06/23 12:55:24;;;;;;;6.38;5.78;;;30.60;52.00;;;;;;5028784;28;20037;-57